createdAt,value
2023-05-15T00:00:44.428Z,97647.91
2023-05-15T00:03:13.031Z,97650.75
2023-05-15T00:05:42.503Z,97652.22
2023-05-15T00:08:10.728Z,97635.66
2023-05-15T00:10:40.874Z,97635.91
2023-05-15T00:13:10.884Z,97633.19
2023-05-15T00:15:39.001Z,97637.69
2023-05-15T00:18:07.290Z,97638.22
2023-05-15T00:20:35.339Z,97639.25
2023-05-15T00:23:04.767Z,97629.53
2023-05-15T00:25:32.922Z,97632.13
2023-05-15T00:28:00.911Z,97630.06
2023-05-15T00:30:30.697Z,97621.72
2023-05-15T00:32:58.850Z,97615.41
2023-05-15T00:35:27.300Z,97608.47
2023-05-15T00:37:55.455Z,97606.31
2023-05-15T00:40:27.023Z,97603.41
2023-05-15T00:42:55.629Z,97590.69
2023-05-15T00:45:27.003Z,97600.75
2023-05-15T00:47:56.064Z,97592.19
2023-05-15T00:50:25.464Z,97596.25
2023-05-15T00:52:54.283Z,97592.50
2023-05-15T00:55:22.457Z,97589.00
2023-05-15T00:57:54.045Z,97575.25
2023-05-15T01:00:22.301Z,97567.16
2023-05-15T01:02:50.876Z,97569.53
2023-05-15T01:05:19.275Z,97561.22
2023-05-15T01:07:56.014Z,97559.41
2023-05-15T01:10:25.206Z,97554.13
2023-05-15T01:12:56.748Z,97558.00
2023-05-15T01:15:25.364Z,97556.44
2023-05-15T01:17:53.799Z,97557.16
2023-05-15T01:20:24.329Z,97554.88
2023-05-15T01:23:01.696Z,97564.03
2023-05-15T01:25:54.222Z,97559.94
2023-05-15T01:28:31.904Z,97565.00
2023-05-15T01:31:07.404Z,97567.44
2023-05-15T01:33:42.911Z,97563.03
2023-05-15T01:36:15.986Z,97549.78
2023-05-15T01:38:47.454Z,97551.28
2023-05-15T01:41:23.524Z,97554.38
2023-05-15T01:43:57.858Z,97555.66
2023-05-15T01:46:31.444Z,97552.59
2023-05-15T01:49:02.144Z,97552.56
2023-05-15T01:51:31.638Z,97545.59
2023-05-15T01:54:00.800Z,97540.78
2023-05-15T01:56:29.637Z,97536.28
2023-05-15T01:59:01.051Z,97540.00
2023-05-15T02:01:31.086Z,97530.38
2023-05-15T02:03:59.564Z,97529.94
2023-05-15T02:06:28.678Z,97525.81
2023-05-15T02:08:58.995Z,97520.78
2023-05-15T02:11:27.038Z,97520.75
2023-05-15T02:13:58.175Z,97510.31
2023-05-15T02:16:27.819Z,97517.44
2023-05-15T02:18:56.439Z,97502.28
2023-05-15T02:21:24.644Z,97508.06
2023-05-15T02:23:52.742Z,97501.69
2023-05-15T02:26:36.775Z,97501.03
2023-05-15T02:29:14.994Z,97496.69
2023-05-15T02:31:52.780Z,97494.53
2023-05-15T02:34:29.139Z,97484.69
2023-05-15T02:36:59.256Z,97479.00
2023-05-15T02:39:28.908Z,97478.53
2023-05-15T02:41:58.580Z,97471.22
2023-05-15T02:44:27.397Z,97474.44
2023-05-15T02:46:57.290Z,97464.47
2023-05-15T02:49:25.852Z,97464.47
2023-05-15T02:51:53.951Z,97468.00
2023-05-15T02:54:22.090Z,97474.72
2023-05-15T02:56:50.157Z,97464.19
2023-05-15T02:59:20.173Z,97465.75
2023-05-15T03:01:48.555Z,97462.66
2023-05-15T03:04:18.248Z,97466.09
2023-05-15T03:06:46.386Z,97466.09
2023-05-15T03:09:14.483Z,97466.97
2023-05-15T03:11:42.514Z,97466.84
2023-05-15T03:14:10.903Z,97468.25
2023-05-15T03:16:39.146Z,97459.03
2023-05-15T03:19:07.546Z,97457.22
2023-05-15T03:21:37.049Z,97462.47
2023-05-15T03:24:05.319Z,97457.66
2023-05-15T03:26:33.382Z,97448.00
2023-05-15T03:29:02.242Z,97454.66
2023-05-15T03:31:30.352Z,97460.13
2023-05-15T03:33:58.676Z,97456.38
2023-05-15T03:36:26.743Z,97462.47
2023-05-15T03:38:56.310Z,97455.81
2023-05-15T03:41:26.154Z,97459.03
2023-05-15T03:43:54.270Z,97452.41
2023-05-15T03:46:22.344Z,97452.31
2023-05-15T03:48:50.545Z,97450.34
2023-05-15T03:51:18.687Z,97440.06
2023-05-15T03:53:46.821Z,97442.34
2023-05-15T03:56:16.449Z,97444.00
2023-05-15T03:58:44.643Z,97431.56
2023-05-15T04:01:12.725Z,97433.09
2023-05-15T04:03:40.810Z,97425.56
2023-05-15T04:06:08.924Z,97422.38
2023-05-15T04:08:37.263Z,97428.78
2023-05-15T04:11:06.084Z,97432.56
2023-05-15T04:13:35.502Z,97421.41
2023-05-15T04:16:04.450Z,97419.94
2023-05-15T04:18:32.757Z,97416.84
2023-05-15T04:21:00.939Z,97419.09
2023-05-15T04:23:29.138Z,97418.28
2023-05-15T04:25:57.173Z,97412.91
2023-05-15T04:28:25.155Z,97416.97
2023-05-15T04:30:54.525Z,97396.09
2023-05-15T04:33:22.637Z,97379.47
2023-05-15T04:35:50.925Z,97389.16
2023-05-15T04:38:19.023Z,97379.03
2023-05-15T04:40:47.150Z,97377.00
2023-05-15T04:43:15.651Z,97369.75
2023-05-15T04:45:43.883Z,97375.47
2023-05-15T04:48:13.401Z,97377.72
2023-05-15T04:50:41.594Z,97366.94
2023-05-15T04:53:09.584Z,97375.19
2023-05-15T04:55:37.714Z,97381.78
2023-05-15T04:58:05.776Z,97375.31
2023-05-15T05:00:33.819Z,97374.31
2023-05-15T05:03:02.142Z,97380.59
2023-05-15T05:05:31.655Z,97377.41
2023-05-15T05:07:59.696Z,97378.06
2023-05-15T05:10:27.839Z,97375.53
2023-05-15T05:12:56.439Z,97371.22
2023-05-15T05:15:24.876Z,97375.78
2023-05-15T05:17:54.437Z,97383.34
2023-05-15T05:20:22.987Z,97382.66
2023-05-15T05:22:52.613Z,97379.78
2023-05-15T05:25:20.892Z,97370.75
2023-05-15T05:27:48.978Z,97359.97
2023-05-15T05:30:17.421Z,97372.91
2023-05-15T05:32:45.674Z,97365.22
2023-05-15T05:35:13.869Z,97365.63
2023-05-15T05:37:41.978Z,97368.72
2023-05-15T05:40:12.607Z,97371.94
2023-05-15T05:42:40.726Z,97379.31
2023-05-15T05:45:09.596Z,97382.53
2023-05-15T05:47:37.655Z,97382.63
2023-05-15T05:50:06.455Z,97372.34
2023-05-15T05:52:34.570Z,97376.50
2023-05-15T05:55:02.572Z,97383.41
2023-05-15T05:57:32.110Z,97388.56
2023-05-15T06:00:00.354Z,97378.50
2023-05-15T06:02:29.007Z,97377.34
2023-05-15T06:04:57.567Z,97360.28
2023-05-15T06:07:25.672Z,97342.75
2023-05-15T06:09:53.782Z,97345.06
2023-05-15T06:12:23.131Z,97349.00
2023-05-15T06:14:53.386Z,97339.75
2023-05-15T06:17:21.961Z,97331.63
2023-05-15T06:19:50.047Z,97323.94
2023-05-15T06:22:18.108Z,97313.94
2023-05-15T06:24:46.208Z,97304.50
2023-05-15T06:27:14.576Z,97301.97
2023-05-15T06:29:42.760Z,97306.41
2023-05-15T06:32:12.201Z,97309.78
2023-05-15T06:34:40.385Z,97310.19
2023-05-15T06:37:08.524Z,97298.50
2023-05-15T06:39:36.707Z,97289.53
2023-05-15T06:42:05.059Z,97304.28
2023-05-15T06:44:33.344Z,97303.09
2023-05-15T06:47:01.438Z,97301.44
2023-05-15T06:49:31.105Z,97297.31
2023-05-15T06:51:59.216Z,97295.34
2023-05-15T06:54:27.334Z,97294.25
2023-05-15T06:56:55.354Z,97291.09
2023-05-15T06:59:23.354Z,97297.44
2023-05-15T07:01:51.655Z,97294.13
2023-05-15T07:04:19.978Z,97296.75
2023-05-15T07:06:49.406Z,97301.56
2023-05-15T07:09:17.528Z,97298.94
2023-05-15T07:11:45.648Z,97296.31
2023-05-15T07:14:13.729Z,97309.03
2023-05-15T07:16:41.972Z,97299.13
2023-05-15T07:19:10.331Z,97301.72
2023-05-15T07:21:38.524Z,97307.81
2023-05-15T07:24:08.497Z,97306.88
2023-05-15T07:26:46.681Z,97306.16
2023-05-15T07:29:25.015Z,97311.72
2023-05-15T07:31:53.001Z,97313.56
2023-05-15T07:34:21.048Z,97313.72
2023-05-15T07:36:49.045Z,97312.81
2023-05-15T07:39:18.700Z,97314.19
2023-05-15T07:41:47.722Z,97319.06
2023-05-15T07:44:15.714Z,97310.09
2023-05-15T07:46:45.790Z,97310.84
2023-05-15T07:49:13.939Z,97323.13
2023-05-15T07:51:42.838Z,97320.78
2023-05-15T07:54:10.965Z,97313.59
2023-05-15T07:56:40.652Z,97316.41
2023-05-15T07:59:09.635Z,97304.94
2023-05-15T08:01:38.021Z,97305.06
2023-05-15T08:04:09.684Z,97312.16
2023-05-15T08:06:39.198Z,97313.06
2023-05-15T08:09:08.043Z,97321.19
2023-05-15T08:11:37.258Z,97321.53
2023-05-15T08:14:06.722Z,97332.03
2023-05-15T08:16:35.011Z,97336.59
2023-05-15T08:19:05.094Z,97343.50
2023-05-15T08:21:33.176Z,97326.94
2023-05-15T08:24:01.685Z,97330.56
2023-05-15T08:26:29.694Z,97328.91
2023-05-15T08:28:57.826Z,97335.88
2023-05-15T08:31:27.346Z,97335.66
2023-05-15T08:33:55.527Z,97334.03
2023-05-15T08:36:23.747Z,97331.16
2023-05-15T08:38:51.849Z,97332.41
2023-05-15T08:41:39.995Z,97331.41
2023-05-15T08:44:10.705Z,97341.81
2023-05-15T08:46:40.311Z,97336.22
2023-05-15T08:49:15.963Z,97333.25
2023-05-15T08:51:44.352Z,97328.53
2023-05-15T08:54:12.756Z,97329.69
2023-05-15T08:56:41.148Z,97344.59
2023-05-15T08:59:09.380Z,97340.75
2023-05-15T09:01:38.133Z,97328.53
2023-05-15T09:04:07.597Z,97338.28
2023-05-15T09:06:36.604Z,97352.22
2023-05-15T09:09:06.072Z,97354.22
2023-05-15T09:11:34.603Z,97365.25
2023-05-15T09:14:02.634Z,97358.91
2023-05-15T09:16:30.699Z,97355.59
2023-05-15T09:19:01.423Z,97354.84
2023-05-15T09:21:32.279Z,97352.53
2023-05-15T09:24:18.908Z,97343.31
2023-05-15T09:26:48.464Z,97342.91
2023-05-15T09:29:19.656Z,97339.16
2023-05-15T09:31:48.420Z,97342.25
2023-05-15T09:34:16.668Z,97346.09
2023-05-15T09:36:46.129Z,97352.31
2023-05-15T09:39:14.244Z,97354.88
2023-05-15T09:41:45.213Z,97350.25
2023-05-15T09:44:21.807Z,97359.56
2023-05-15T09:46:51.573Z,97360.41
2023-05-15T09:49:20.271Z,97374.50
2023-05-15T09:51:50.826Z,97387.91
2023-05-15T09:54:20.349Z,97389.56
2023-05-15T09:56:49.131Z,97389.66
2023-05-15T09:59:19.444Z,97379.19
2023-05-15T10:01:47.793Z,97367.22
2023-05-15T10:04:16.159Z,97367.25
2023-05-15T10:06:46.574Z,97365.56
2023-05-15T10:09:16.533Z,97366.47
2023-05-15T10:11:51.539Z,97363.78
2023-05-15T10:14:21.098Z,97357.19
2023-05-15T10:16:49.955Z,97356.44
2023-05-15T10:19:21.055Z,97357.59
2023-05-15T10:21:49.760Z,97354.28
2023-05-15T10:24:21.910Z,97364.28
2023-05-15T10:26:50.617Z,97364.72
2023-05-15T10:29:21.269Z,97361.63
2023-05-15T10:31:50.033Z,97354.78
2023-05-15T10:34:19.956Z,97361.16
2023-05-15T10:36:50.868Z,97363.78
2023-05-15T10:39:21.055Z,97365.78
2023-05-15T10:41:52.012Z,97379.38
2023-05-15T10:44:21.636Z,97394.50
2023-05-15T10:46:50.407Z,97397.38
2023-05-15T10:49:18.674Z,97386.97
2023-05-15T10:51:46.733Z,97394.16
2023-05-15T10:54:15.967Z,97392.69
2023-05-15T10:56:45.610Z,97392.47
2023-05-15T10:59:13.684Z,97393.22
2023-05-15T11:01:42.451Z,97391.94
2023-05-15T11:04:12.937Z,97385.91
2023-05-15T11:06:45.330Z,97379.56
2023-05-15T11:09:36.482Z,97375.38
2023-05-15T11:12:07.252Z,97376.19
2023-05-15T11:14:38.671Z,97377.72
2023-05-15T11:17:08.706Z,97367.59
2023-05-15T11:19:55.560Z,97366.03
2023-05-15T11:22:28.506Z,97361.84
2023-05-15T11:25:00.355Z,97369.72
2023-05-15T11:27:32.362Z,97368.28
2023-05-15T11:30:15.311Z,97362.13
2023-05-15T11:32:56.209Z,97358.66
2023-05-15T11:35:27.816Z,97367.00
2023-05-15T11:37:58.323Z,97368.50
2023-05-15T11:40:28.152Z,97366.03
2023-05-15T11:43:08.734Z,97365.53
2023-05-15T11:45:38.725Z,97358.19
2023-05-15T11:48:13.767Z,97357.88
2023-05-15T11:50:43.118Z,97355.84
2023-05-15T11:53:11.575Z,97348.19
2023-05-15T11:55:41.518Z,97351.06
2023-05-15T11:58:15.129Z,97360.03
2023-05-15T12:00:43.875Z,97360.22
2023-05-15T12:03:20.503Z,97349.69
2023-05-15T12:05:58.051Z,97357.72
2023-05-15T12:08:28.259Z,97359.72
2023-05-15T12:11:00.557Z,97346.13
2023-05-15T12:13:30.731Z,97341.50
2023-05-15T12:15:58.869Z,97338.94
2023-05-15T12:18:26.966Z,97332.41
2023-05-15T12:20:55.893Z,97343.13
2023-05-15T12:23:25.483Z,97337.38
2023-05-15T12:25:58.542Z,97336.22
2023-05-15T12:28:27.314Z,97336.78
2023-05-15T12:30:57.179Z,97329.25
2023-05-15T12:33:26.079Z,97326.03
2023-05-15T12:36:00.281Z,97331.81
2023-05-15T12:38:30.659Z,97331.56
2023-05-15T12:40:59.002Z,97332.44
2023-05-15T12:43:27.563Z,97327.91
2023-05-15T12:45:58.234Z,97329.25
2023-05-15T12:48:31.401Z,97322.34
2023-05-15T12:51:06.726Z,97322.78
2023-05-15T12:53:35.303Z,97323.13
2023-05-15T12:56:04.883Z,97315.69
2023-05-15T12:58:32.975Z,97311.25
2023-05-15T13:01:03.676Z,97307.38
2023-05-15T13:03:32.478Z,97312.56
2023-05-15T13:06:03.502Z,97311.34
2023-05-15T13:08:31.616Z,97312.56
2023-05-15T13:11:01.404Z,97317.50
2023-05-15T13:13:46.090Z,97329.50
2023-05-15T13:16:23.425Z,97311.63
2023-05-15T13:18:51.683Z,97304.75
2023-05-15T13:21:20.132Z,97305.56
2023-05-15T13:23:48.251Z,97300.94
2023-05-15T13:26:16.370Z,97305.50
2023-05-15T13:28:44.495Z,97307.81
2023-05-15T13:31:12.667Z,97324.00
2023-05-15T13:33:42.194Z,97326.25
2023-05-15T13:36:10.670Z,97318.69
2023-05-15T13:38:39.350Z,97316.53
2023-05-15T13:41:07.484Z,97319.75
2023-05-15T13:43:35.588Z,97325.34
2023-05-15T13:46:03.642Z,97319.22
2023-05-15T13:48:31.837Z,97314.69
2023-05-15T13:51:01.352Z,97315.63
2023-05-15T13:53:29.375Z,97306.13
2023-05-15T13:55:57.507Z,97300.50
2023-05-15T13:58:26.776Z,97309.44
2023-05-15T14:00:54.990Z,97318.75
2023-05-15T14:03:23.264Z,97320.09
2023-05-15T14:05:51.950Z,97324.97
2023-05-15T14:08:21.577Z,97334.09
2023-05-15T14:10:49.625Z,97337.50
2023-05-15T14:13:17.899Z,97346.47
2023-05-15T14:15:46.161Z,97348.44
2023-05-15T14:18:14.287Z,97357.59
2023-05-15T14:20:42.337Z,97358.34
2023-05-15T14:23:10.403Z,97348.84
2023-05-15T14:25:39.932Z,97356.44
2023-05-15T14:28:08.085Z,97355.59
2023-05-15T14:30:36.144Z,97357.88
2023-05-15T14:33:04.261Z,97352.59
2023-05-15T14:35:32.426Z,97348.63
2023-05-15T14:38:00.536Z,97348.50
2023-05-15T14:40:28.628Z,97336.16
2023-05-15T14:42:58.698Z,97337.63
2023-05-15T14:45:27.148Z,97333.84
2023-05-15T14:47:55.401Z,97330.88
2023-05-15T14:50:23.685Z,97329.53
2023-05-15T14:52:58.608Z,97324.50
2023-05-15T14:55:27.769Z,97322.13
2023-05-15T14:58:01.102Z,97321.59
2023-05-15T15:00:30.205Z,97321.09
2023-05-15T15:02:59.522Z,97319.81
2023-05-15T15:05:27.696Z,97319.91
2023-05-15T15:08:03.756Z,97321.84
2023-05-15T15:10:32.895Z,97330.22
2023-05-15T15:13:02.486Z,97341.72
2023-05-15T15:15:31.989Z,97331.94
2023-05-15T15:18:00.169Z,97329.47
2023-05-15T15:20:29.117Z,97340.69
2023-05-15T15:22:57.525Z,97341.84
2023-05-15T15:25:25.589Z,97340.31
2023-05-15T15:27:54.067Z,97341.50
2023-05-15T15:30:23.808Z,97347.34
2023-05-15T15:32:52.041Z,97346.72
2023-05-15T15:35:20.183Z,97348.28
2023-05-15T15:37:48.220Z,97346.53
2023-05-15T15:40:16.489Z,97346.06
2023-05-15T15:42:44.583Z,97347.16
2023-05-15T15:45:12.699Z,97356.28
2023-05-15T15:47:42.374Z,97352.38
2023-05-15T15:50:10.919Z,97356.44
2023-05-15T15:52:38.894Z,97361.44
2023-05-15T15:55:08.224Z,97361.47
2023-05-15T15:57:38.023Z,97363.00
2023-05-15T16:00:08.283Z,97362.16
2023-05-15T16:02:37.107Z,97369.59
2023-05-15T16:05:08.535Z,97371.13
2023-05-15T16:07:36.750Z,97365.47
2023-05-15T16:10:12.523Z,97364.34
2023-05-15T16:12:53.271Z,97370.31
2023-05-15T16:15:23.728Z,97371.94
2023-05-15T16:17:54.363Z,97372.22
2023-05-15T16:20:25.012Z,97377.56
2023-05-15T16:22:53.584Z,97374.97
2023-05-15T16:25:21.825Z,97377.78
2023-05-15T16:27:49.944Z,97378.75
2023-05-15T16:30:18.181Z,97377.72
2023-05-15T16:32:46.810Z,97379.81
2023-05-15T16:35:15.057Z,97379.34
2023-05-15T16:37:44.469Z,97373.59
2023-05-15T16:40:13.427Z,97373.28
2023-05-15T16:42:41.687Z,97396.38
2023-05-15T16:45:10.684Z,97398.81
2023-05-15T16:47:40.073Z,97394.88
2023-05-15T16:50:09.173Z,97402.41
2023-05-15T16:52:38.872Z,97392.22
2023-05-15T16:55:09.448Z,97390.78
2023-05-15T16:57:37.530Z,97412.06
2023-05-15T17:00:09.619Z,97397.75
2023-05-15T17:02:37.967Z,97410.00
2023-05-15T17:05:08.832Z,97402.72
2023-05-15T17:07:37.043Z,97399.97
2023-05-15T17:10:05.643Z,97398.81
2023-05-15T17:12:35.240Z,97400.41
2023-05-15T17:15:03.743Z,97406.44
2023-05-15T17:17:31.841Z,97409.25
2023-05-15T17:20:01.110Z,97400.63
2023-05-15T17:22:30.945Z,97411.78
2023-05-15T17:24:59.370Z,97410.91
2023-05-15T17:27:27.516Z,97412.25
2023-05-15T17:29:57.253Z,97414.06
2023-05-15T17:32:25.705Z,97418.13
2023-05-15T17:34:54.072Z,97423.31
2023-05-15T17:37:22.070Z,97423.72
2023-05-15T17:39:50.546Z,97432.13
2023-05-15T17:42:18.681Z,97430.69
2023-05-15T17:44:46.705Z,97429.13
2023-05-15T17:47:16.133Z,97436.38
2023-05-15T17:49:44.374Z,97435.41
2023-05-15T17:52:12.454Z,97440.56
2023-05-15T17:54:40.518Z,97440.81
2023-05-15T17:57:08.602Z,97437.06
2023-05-15T17:59:36.663Z,97444.88
2023-05-15T18:02:05.018Z,97455.38
2023-05-15T18:04:34.664Z,97446.59
2023-05-15T18:07:02.804Z,97458.53
2023-05-15T18:09:31.665Z,97459.38
2023-05-15T18:11:59.968Z,97460.13
2023-05-15T18:14:28.030Z,97464.13
2023-05-15T18:16:57.546Z,97484.09
2023-05-15T18:19:25.740Z,97485.19
2023-05-15T18:21:55.574Z,97480.50
2023-05-15T18:24:23.620Z,97486.50
2023-05-15T18:26:51.712Z,97486.50
2023-05-15T18:29:20.015Z,97494.16
2023-05-15T18:31:48.221Z,97497.78
2023-05-15T18:34:16.309Z,97501.31
2023-05-15T18:36:44.466Z,97487.97
2023-05-15T18:39:15.662Z,97500.56
2023-05-15T18:41:43.869Z,97508.47
2023-05-15T18:44:11.951Z,97504.63
2023-05-15T18:46:40.099Z,97501.16
2023-05-15T18:49:08.508Z,97510.34
2023-05-15T18:51:36.648Z,97515.56
2023-05-15T18:54:04.879Z,97517.44
2023-05-15T18:56:34.366Z,97523.44
2023-05-15T18:59:02.500Z,97531.34
2023-05-15T19:01:30.843Z,97533.91
2023-05-15T19:03:59.089Z,97541.91
2023-05-15T19:06:27.354Z,97545.66
2023-05-15T19:08:55.522Z,97541.84
2023-05-15T19:11:23.662Z,97545.31
2023-05-15T19:13:53.226Z,97552.53
2023-05-15T19:16:21.433Z,97550.41
2023-05-15T19:18:49.569Z,97550.31
2023-05-15T19:21:21.041Z,97547.00
2023-05-15T19:23:49.282Z,97559.09
2023-05-15T19:26:17.326Z,97552.03
2023-05-15T19:28:45.375Z,97552.69
2023-05-15T19:31:30.195Z,97566.41
2023-05-15T19:33:59.666Z,97557.16
2023-05-15T19:36:27.766Z,97564.34
2023-05-15T19:38:56.081Z,97563.69
2023-05-15T19:41:24.589Z,97565.88
2023-05-15T19:43:52.627Z,97565.97
2023-05-15T19:46:22.029Z,97563.50
2023-05-15T19:48:50.112Z,97577.53
2023-05-15T19:51:18.224Z,97580.66
2023-05-15T19:53:46.242Z,97567.69
2023-05-15T19:56:14.895Z,97585.09
2023-05-15T19:58:43.000Z,97567.34
2023-05-15T20:01:11.341Z,97583.91
2023-05-15T20:03:41.014Z,97566.56
2023-05-15T20:06:10.444Z,97574.50
2023-05-15T20:08:38.684Z,97569.19
2023-05-15T20:11:06.822Z,97575.69
2023-05-15T20:13:35.575Z,97573.03
2023-05-15T20:16:07.193Z,97571.81
2023-05-15T20:18:35.826Z,97576.72
2023-05-15T20:21:05.300Z,97566.25
2023-05-15T20:23:33.390Z,97570.25
2023-05-15T20:26:01.514Z,97574.53
2023-05-15T20:28:29.635Z,97572.50
2023-05-15T20:30:58.470Z,97584.50
2023-05-15T20:33:26.747Z,97568.94
2023-05-15T20:35:54.829Z,97571.91
2023-05-15T20:38:25.428Z,97581.25
2023-05-15T20:40:53.689Z,97576.97
2023-05-15T20:43:21.762Z,97586.31
2023-05-15T20:45:49.823Z,97589.06
2023-05-15T20:48:17.998Z,97596.81
2023-05-15T20:50:46.070Z,97595.19
2023-05-15T20:53:14.411Z,97594.78
2023-05-15T20:55:43.916Z,97586.38
2023-05-15T20:58:11.908Z,97596.28
2023-05-15T21:00:40.233Z,97594.56
2023-05-15T21:03:09.379Z,97609.50
2023-05-15T21:05:37.627Z,97603.56
2023-05-15T21:08:06.088Z,97601.00
2023-05-15T21:10:35.591Z,97606.22
2023-05-15T21:13:05.380Z,97610.88
2023-05-15T21:15:33.487Z,97610.16
2023-05-15T21:18:01.798Z,97622.22
2023-05-15T21:20:29.864Z,97622.22
2023-05-15T21:22:57.931Z,97617.22
2023-05-15T21:25:26.064Z,97613.94
2023-05-15T21:27:54.110Z,97619.47
2023-05-15T21:30:23.736Z,97617.47
2023-05-15T21:32:51.930Z,97614.59
2023-05-15T21:35:20.021Z,97621.22
2023-05-15T21:37:48.375Z,97627.78
2023-05-15T21:40:16.616Z,97618.75
2023-05-15T21:42:44.719Z,97626.84
2023-05-15T21:45:12.835Z,97619.50
2023-05-15T21:47:42.529Z,97631.59
2023-05-15T21:50:11.153Z,97633.72
2023-05-15T21:52:39.165Z,97627.94
2023-05-15T21:55:08.484Z,97632.72
2023-05-15T21:57:36.487Z,97643.56
2023-05-15T22:00:07.335Z,97647.47
2023-05-15T22:02:35.408Z,97643.97
2023-05-15T22:05:05.466Z,97632.91
2023-05-15T22:07:33.633Z,97646.63
2023-05-15T22:10:03.187Z,97628.22
2023-05-15T22:12:32.299Z,97633.78
2023-05-15T22:15:01.303Z,97629.06
2023-05-15T22:17:30.511Z,97630.06
2023-05-15T22:20:07.484Z,97631.53
2023-05-15T22:22:37.968Z,97628.88
2023-05-15T22:25:07.213Z,97635.25
2023-05-15T22:27:35.262Z,97636.69
2023-05-15T22:30:03.315Z,97635.00
2023-05-15T22:32:31.474Z,97643.44
2023-05-15T22:34:59.479Z,97634.88
2023-05-15T22:37:27.566Z,97642.63
2023-05-15T22:39:57.199Z,97650.59
2023-05-15T22:42:25.633Z,97653.25
2023-05-15T22:44:55.440Z,97651.94
2023-05-15T22:47:23.585Z,97651.81
2023-05-15T22:49:51.601Z,97658.56
2023-05-15T22:52:19.740Z,97645.63
2023-05-15T22:54:47.836Z,97661.56
2023-05-15T22:57:17.270Z,97660.47
2023-05-15T22:59:46.003Z,97653.81
2023-05-15T23:02:14.053Z,97651.84
2023-05-15T23:04:42.086Z,97657.94
2023-05-15T23:07:10.135Z,97665.31
2023-05-15T23:09:38.165Z,97654.63
2023-05-15T23:12:07.345Z,97655.16
2023-05-15T23:14:36.791Z,97660.78
2023-05-15T23:17:05.055Z,97663.78
2023-05-15T23:19:33.194Z,97656.59
2023-05-15T23:22:01.187Z,97649.47
2023-05-15T23:24:29.219Z,97648.94
2023-05-15T23:26:57.658Z,97657.66
2023-05-15T23:29:25.807Z,97655.63
2023-05-15T23:31:57.114Z,97660.72
2023-05-15T23:34:25.306Z,97656.59
2023-05-15T23:36:53.275Z,97661.72
2023-05-15T23:39:21.412Z,97655.47
2023-05-15T23:41:49.764Z,97660.13
2023-05-15T23:44:17.861Z,97659.75
2023-05-15T23:46:46.127Z,97662.44
2023-05-15T23:49:15.621Z,97667.94
2023-05-15T23:51:44.506Z,97664.69
2023-05-15T23:54:12.742Z,97673.53
2023-05-15T23:56:41.209Z,97681.28
2023-05-15T23:59:09.196Z,97675.50
